Clipper Imabari — 3ERD7 — position and weather

sailwx.info

Track history (hours):
 
Tides and Currents Weather Stations Pressure Air Temp Water Temp Dewpoint Dewpoint Depression Visibility Wind Speed Wind Dir Waves Ship Positions

Clipper Imabari

Last reported at 2016-Jul-27 00:33 UTC. Time now 2016-Jul-27 01:48 UTC.
Position N 36°23' W 001°47'.

Length 169 m; draft 9.8 m.

Type: Ship. MMSI: 370016000.

Date/timePositionNaut miles runAvg speedWind from/ knotsBaromVisibWave heightAir tempDewpointWater temp
2016-Jul-27 00:33N 36°23' W 001°47'1712.8
2016-Jul-26 23:15N 36°20' W 002°07'1213.5
2016-Jul-26 22:22N 36°20' W 002°22'1113.4
2016-Jul-26 21:33N 36°18' W 002°35'1313.1
2016-Jul-26 20:33N 36°17' W 002°52'1413.7
2016-Jul-26 19:33N 36°14' W 003°08'10113.6
2016-Jul-26 12:07N 36°01' W 005°13'611.4
2016-Jul-26 11:34N 36°02' W 005°20'4 3.7
2016-Jul-26 10:34N 36°05' W 005°23'3 2.5
2016-Jul-26 09:34N 36°08' W 005°23'1 0.6
2016-Jul-26 07:29N 36°09' W 005°22'0 0.1
2016-Jul-26 06:20N 36°09' W 005°22'0 0.1
2016-Jul-26 05:32N 36°09' W 005°22'0 0.1
2016-Jul-26 04:32N 36°09' W 005°22'2 2.4
2016-Jul-26 03:33N 36°07' W 005°23'2 2.2
2016-Jul-26 02:33N 36°04' W 005°23'8 8.4
2016-Jul-26 01:33N 35°58' W 005°29'10011.9
2016-Jul-25 17:08N 35°52' W 007°32'712.4
2016-Jul-25 16:33N 35°52' W 007°41'4912.1
2016-Jul-25 12:29N 35°52' W 008°42'5212.7
2016-Jul-25 08:26N 35°54' W 009°46'1213.2
2016-Jul-25 07:33N 35°56' W 009°60'1313.1
2016-Jul-25 06:33N 35°59' W 010°15'1312.7
2016-Jul-25 05:33N 36°01' W 010°31'1312.7
2016-Jul-25 04:33N 36°02' W 010°46'1312.7
2016-Jul-25 03:33N 36°05' W 011°02'1312.5
2016-Jul-25 02:33N 36°08' W 011°17'1212.5
2016-Jul-25 01:33N 36°11' W 011°32'1312.6
2016-Jul-25 00:33N 36°14' W 011°47'1212.1
2016-Jul-24 23:33N 36°17' W 012°02'1111.1
2016-Jul-24 22:33N 36°17' W 012°16'53711.4
2016-Jul-22 23:31N 35°23' W 023°14'2913.0
2016-Jul-22 21:19N 35°20' W 023°49'1012.9
2016-Jul-22 20:33N 35°19' W 024°01'1612.8
2016-Jul-22 19:20N 35°17' W 024°20'1012.5
2016-Jul-22 18:33N 35°16' W 024°32'1312.8
2016-Jul-22 17:32N 35°15' W 024°48'1312.6
2016-Jul-22 16:32N 35°13' W 025°03'1212.6
2016-Jul-22 15:33N 35°12' W 025°18'1212.4
2016-Jul-22 14:33N 35°10' W 025°33'1312.9
2016-Jul-22 13:31N 35°09' W 025°50'1713.2
2016-Jul-22 12:15N 35°07' W 026°10'1413.2
2016-Jul-22 11:13N 35°05' W 026°26'  
Track history (hours):
 
Tides and Currents Weather Stations Pressure Air Temp Water Temp Dewpoint Dewpoint Depression Visibility Wind Speed Wind Dir Waves Ship Positions

Clipper Imabari

Last reported at 2016-Jul-27 00:33 UTC. Time now 2016-Jul-27 01:48 UTC.
Position N 36°23' W 001°47'.

Length 169 m; draft 9.8 m.

Type: Ship. MMSI: 370016000.

Date/timePositionNaut miles runAvg speedWind from/ knotsBaromVisibWave heightAir tempDewpointWater temp
2016-Jul-27 00:33N 36°23' W 001°47'1712.8
2016-Jul-26 23:15N 36°20' W 002°07'1213.5
2016-Jul-26 22:22N 36°20' W 002°22'1113.4
2016-Jul-26 21:33N 36°18' W 002°35'1313.1
2016-Jul-26 20:33N 36°17' W 002°52'1413.7
2016-Jul-26 19:33N 36°14' W 003°08'10113.6
2016-Jul-26 12:07N 36°01' W 005°13'611.4
2016-Jul-26 11:34N 36°02' W 005°20'4 3.7
2016-Jul-26 10:34N 36°05' W 005°23'3 2.5
2016-Jul-26 09:34N 36°08' W 005°23'1 0.6
2016-Jul-26 07:29N 36°09' W 005°22'0 0.1
2016-Jul-26 06:20N 36°09' W 005°22'0 0.1
2016-Jul-26 05:32N 36°09' W 005°22'0 0.1
2016-Jul-26 04:32N 36°09' W 005°22'2 2.4
2016-Jul-26 03:33N 36°07' W 005°23'2 2.2
2016-Jul-26 02:33N 36°04' W 005°23'8 8.4
2016-Jul-26 01:33N 35°58' W 005°29'10011.9
2016-Jul-25 17:08N 35°52' W 007°32'712.4
2016-Jul-25 16:33N 35°52' W 007°41'4912.1
2016-Jul-25 12:29N 35°52' W 008°42'5212.7
2016-Jul-25 08:26N 35°54' W 009°46'1213.2
2016-Jul-25 07:33N 35°56' W 009°60'1313.1
2016-Jul-25 06:33N 35°59' W 010°15'1312.7
2016-Jul-25 05:33N 36°01' W 010°31'1312.7
2016-Jul-25 04:33N 36°02' W 010°46'1312.7
2016-Jul-25 03:33N 36°05' W 011°02'1312.5
2016-Jul-25 02:33N 36°08' W 011°17'1212.5
2016-Jul-25 01:33N 36°11' W 011°32'1312.6
2016-Jul-25 00:33N 36°14' W 011°47'1212.1
2016-Jul-24 23:33N 36°17' W 012°02'1111.1
2016-Jul-24 22:33N 36°17' W 012°16'53711.4
2016-Jul-22 23:31N 35°23' W 023°14'2913.0
2016-Jul-22 21:19N 35°20' W 023°49'1012.9
2016-Jul-22 20:33N 35°19' W 024°01'1612.8
2016-Jul-22 19:20N 35°17' W 024°20'1012.5
2016-Jul-22 18:33N 35°16' W 024°32'1312.8
2016-Jul-22 17:32N 35°15' W 024°48'1312.6
2016-Jul-22 16:32N 35°13' W 025°03'1212.6
2016-Jul-22 15:33N 35°12' W 025°18'1212.4
2016-Jul-22 14:33N 35°10' W 025°33'1312.9
2016-Jul-22 13:31N 35°09' W 025°50'1713.2
2016-Jul-22 12:15N 35°07' W 026°10'1413.2
2016-Jul-22 11:13N 35°05' W 026°26'  

Dump ship's entire track history